THY9314 LTFO-LOWW
Flight info
| Callsign | THY9314 |
|---|---|
| Flight time | N/A |
| Altitude | 36000 |
| Route | ZUBRE UG67 TBN UL851 KUGOS L851 ADINA DCT BARUK DCT BRV DCT RUSAG DCT LUVEL DCT EMBUT DCT NATEX |
| Aircraft | A333/H-V/N |
Departure
| Time | N/A |
|---|---|
| Airport | Rize–Artvin Airport (LTFO) |
Arrival
| Time | 2026-05-04 13:31 |
|---|---|
| Airport | Vienna International Airport (LOWW) |
| Time | Latitude | Longitude | Altitude | Speed | Heading |
|---|---|---|---|---|---|
| 2026-05-04 10:41 | 41.17552 | 40.84531 | 0 ft | 0 kts | 160° |
| 2026-05-04 10:42 | 41.17553 | 40.84531 | 0 ft | 2 kts | 160° |
| 2026-05-04 10:42 | 41.17564 | 40.84539 | 0 ft | 2 kts | 285° |
| 2026-05-04 10:42 | 41.17564 | 40.84540 | 0 ft | 0 kts | 292° |
| 2026-05-04 10:43 | 41.17566 | 40.84532 | 0 ft | 3 kts | 292° |
| 2026-05-04 10:44 | 41.17958 | 40.84798 | 0 ft | 19 kts | 69° |
| 2026-05-04 10:45 | 41.18007 | 40.84973 | 0 ft | 21 kts | 69° |
| 2026-05-04 10:45 | 41.18053 | 40.85160 | 0 ft | 22 kts | 73° |
| 2026-05-04 10:45 | 41.18100 | 40.85356 | 0 ft | 23 kts | 72° |
| 2026-05-04 10:45 | 41.18153 | 40.85566 | 0 ft | 25 kts | 71° |
| 2026-05-04 10:46 | 41.18203 | 40.85761 | 0 ft | 23 kts | 71° |
| 2026-05-04 10:46 | 41.18253 | 40.85959 | 0 ft | 23 kts | 71° |
| 2026-05-04 10:46 | 41.18299 | 40.86140 | 0 ft | 18 kts | 71° |
| 2026-05-04 10:46 | 41.18346 | 40.86304 | 0 ft | 20 kts | 64° |
| 2026-05-04 10:47 | 41.18423 | 40.86427 | 0 ft | 17 kts | 49° |
| 2026-05-04 10:47 | 41.18431 | 40.86540 | 0 ft | 5 kts | 129° |
| 2026-05-04 10:47 | 41.18422 | 40.86545 | 0 ft | 2 kts | 174° |
| 2026-05-04 10:47 | 41.18408 | 40.86535 | 0 ft | 2 kts | 234° |
| 2026-05-04 10:49 | 41.16462 | 40.79159 | 0 ft | 184 kts | 251° |
| 2026-05-04 10:49 | 41.16003 | 40.77427 | 0 ft | 222 kts | 251° |
| 2026-05-04 10:50 | 41.15488 | 40.75302 | 0 ft | 253 kts | 260° |
| 2026-05-04 10:51 | 41.22630 | 40.62188 | 0 ft | 269 kts | 310° |
| 2026-05-04 10:52 | 41.23815 | 40.60220 | 0 ft | 275 kts | 306° |
| 2026-05-04 10:52 | 41.24911 | 40.58135 | 0 ft | 276 kts | 303° |
| 2026-05-04 10:52 | 41.25930 | 40.55960 | 0 ft | 280 kts | 300° |
| 2026-05-04 10:54 | 41.32514 | 40.37433 | 0 ft | 346 kts | 292° |
| 2026-05-04 10:54 | 41.33454 | 40.34450 | 0 ft | 351 kts | 292° |
| 2026-05-04 10:56 | 41.40187 | 40.12533 | 0 ft | 383 kts | 292° |
| 2026-05-04 10:56 | 41.41193 | 40.09218 | 0 ft | 389 kts | 292° |
| 2026-05-04 10:56 | 41.42211 | 40.05852 | 0 ft | 394 kts | 292° |
| 2026-05-04 10:57 | 41.43240 | 40.02445 | 0 ft | 399 kts | 292° |
| 2026-05-04 10:57 | 41.44279 | 39.98998 | 0 ft | 403 kts | 292° |
| 2026-05-04 10:57 | 41.45319 | 39.95546 | 0 ft | 409 kts | 291° |
| 2026-05-04 10:57 | 41.46401 | 39.91943 | 0 ft | 416 kts | 291° |
| 2026-05-04 10:58 | 41.47472 | 39.88373 | 0 ft | 422 kts | 291° |
| 2026-05-04 10:58 | 41.48569 | 39.84714 | 0 ft | 427 kts | 291° |
| 2026-05-04 10:58 | 41.49676 | 39.81014 | 0 ft | 432 kts | 291° |
| 2026-05-04 10:58 | 41.50797 | 39.77261 | 0 ft | 436 kts | 291° |
| 2026-05-04 10:59 | 41.51916 | 39.73509 | 0 ft | 435 kts | 291° |
| 2026-05-04 10:59 | 41.53025 | 39.69785 | 0 ft | 430 kts | 291° |
| 2026-05-04 10:59 | 41.54131 | 39.66067 | 0 ft | 429 kts | 291° |
| 2026-05-04 10:59 | 41.55232 | 39.62358 | 0 ft | 431 kts | 291° |
| 2026-05-04 11:00 | 41.56336 | 39.58634 | 0 ft | 430 kts | 291° |
| 2026-05-04 11:01 | 41.63949 | 39.32793 | 0 ft | 427 kts | 291° |
| 2026-05-04 11:02 | 41.65017 | 39.29147 | 0 ft | 425 kts | 291° |
| 2026-05-04 11:02 | 41.66093 | 39.25468 | 0 ft | 423 kts | 291° |
| 2026-05-04 11:05 | 41.81595 | 38.71894 | 0 ft | 481 kts | 291° |
| 2026-05-04 11:06 | 41.82792 | 38.67712 | 0 ft | 482 kts | 291° |
| 2026-05-04 11:06 | 41.83991 | 38.63514 | 0 ft | 482 kts | 291° |
| 2026-05-04 11:06 | 41.85189 | 38.59316 | 0 ft | 483 kts | 291° |
| 2026-05-04 11:06 | 41.86391 | 38.55097 | 0 ft | 483 kts | 291° |
| 2026-05-04 11:08 | 41.94732 | 38.25604 | 0 ft | 482 kts | 290° |
| 2026-05-04 11:10 | 42.02979 | 37.96101 | 0 ft | 481 kts | 290° |
| 2026-05-04 11:12 | 42.11106 | 37.66676 | 0 ft | 479 kts | 290° |
| 2026-05-04 11:12 | 42.12263 | 37.62461 | 0 ft | 479 kts | 290° |
| 2026-05-04 11:12 | 42.13417 | 37.58248 | 0 ft | 479 kts | 290° |
| 2026-05-04 11:12 | 42.14570 | 37.54029 | 0 ft | 479 kts | 290° |
| 2026-05-04 11:13 | 42.15719 | 37.49821 | 0 ft | 479 kts | 290° |
| 2026-05-04 11:13 | 42.16865 | 37.45615 | 0 ft | 478 kts | 290° |
| 2026-05-04 11:13 | 42.18011 | 37.41402 | 0 ft | 478 kts | 290° |
| 2026-05-04 11:13 | 42.19152 | 37.37200 | 0 ft | 478 kts | 290° |
| 2026-05-04 11:14 | 42.19540 | 37.35772 | 0 ft | 478 kts | 290° |
| 2026-05-04 11:16 | 42.30573 | 36.94751 | 0 ft | 485 kts | 290° |
| 2026-05-04 11:16 | 42.31719 | 36.90451 | 0 ft | 486 kts | 289° |
| 2026-05-04 11:16 | 42.32860 | 36.86159 | 0 ft | 486 kts | 290° |
| 2026-05-04 11:17 | 42.34003 | 36.81858 | 0 ft | 486 kts | 289° |
| 2026-05-04 11:17 | 42.35143 | 36.77554 | 0 ft | 486 kts | 289° |
| 2026-05-04 11:19 | 42.43083 | 36.47387 | 0 ft | 486 kts | 289° |
| 2026-05-04 11:19 | 42.44195 | 36.43131 | 0 ft | 486 kts | 289° |
| 2026-05-04 11:19 | 42.45321 | 36.38818 | 0 ft | 486 kts | 289° |
| 2026-05-04 11:19 | 42.46443 | 36.34507 | 0 ft | 486 kts | 289° |
| 2026-05-04 11:20 | 42.47564 | 36.30193 | 0 ft | 486 kts | 289° |
| 2026-05-04 11:20 | 42.48687 | 36.25865 | 0 ft | 486 kts | 289° |
| 2026-05-04 11:20 | 42.49806 | 36.21546 | 0 ft | 486 kts | 289° |
| 2026-05-04 11:20 | 42.50924 | 36.17220 | 0 ft | 486 kts | 289° |
| 2026-05-04 11:22 | 42.58701 | 35.86918 | 0 ft | 486 kts | 289° |
| 2026-05-04 11:22 | 42.59806 | 35.82583 | 0 ft | 486 kts | 289° |
| 2026-05-04 11:23 | 42.60905 | 35.78260 | 0 ft | 486 kts | 289° |
| 2026-05-04 11:23 | 42.61995 | 35.73964 | 0 ft | 486 kts | 289° |
| 2026-05-04 11:24 | 42.68568 | 35.47902 | 0 ft | 486 kts | 289° |
| 2026-05-04 11:25 | 42.69658 | 35.43552 | 0 ft | 486 kts | 289° |
| 2026-05-04 11:25 | 42.70742 | 35.39219 | 0 ft | 486 kts | 288° |
| 2026-05-04 11:25 | 42.71830 | 35.34861 | 0 ft | 486 kts | 289° |
| 2026-05-04 11:26 | 42.73999 | 35.26151 | 0 ft | 486 kts | 288° |
| 2026-05-04 11:27 | 42.81522 | 34.95677 | 0 ft | 486 kts | 288° |
| 2026-05-04 11:28 | 42.82590 | 34.91318 | 0 ft | 486 kts | 288° |
| 2026-05-04 11:28 | 42.83660 | 34.86942 | 0 ft | 486 kts | 288° |
| 2026-05-04 11:28 | 42.84725 | 34.82578 | 0 ft | 486 kts | 288° |
| 2026-05-04 11:28 | 42.85791 | 34.78203 | 0 ft | 486 kts | 288° |
| 2026-05-04 11:29 | 42.86857 | 34.73819 | 0 ft | 486 kts | 288° |
| 2026-05-04 11:29 | 42.87918 | 34.69445 | 0 ft | 486 kts | 288° |
| 2026-05-04 11:29 | 42.88976 | 34.65078 | 0 ft | 486 kts | 288° |
| 2026-05-04 11:29 | 42.90036 | 34.60695 | 0 ft | 486 kts | 288° |
| 2026-05-04 11:31 | 42.97383 | 34.30070 | 0 ft | 486 kts | 288° |
| 2026-05-04 11:33 | 43.04661 | 33.99319 | 0 ft | 486 kts | 288° |
| 2026-05-04 11:33 | 43.05691 | 33.94930 | 0 ft | 486 kts | 288° |
| 2026-05-04 11:33 | 43.06723 | 33.90527 | 0 ft | 486 kts | 288° |
| 2026-05-04 11:34 | 43.07752 | 33.86128 | 0 ft | 486 kts | 288° |
| 2026-05-04 11:34 | 43.08781 | 33.81722 | 0 ft | 486 kts | 288° |
| 2026-05-04 11:34 | 43.09807 | 33.77318 | 0 ft | 486 kts | 288° |
| 2026-05-04 11:34 | 43.10834 | 33.72899 | 0 ft | 486 kts | 287° |
| 2026-05-04 11:35 | 43.11844 | 33.68546 | 0 ft | 486 kts | 287° |
| 2026-05-04 11:35 | 43.12866 | 33.64134 | 0 ft | 486 kts | 287° |
| 2026-05-04 11:35 | 43.13886 | 33.59722 | 0 ft | 486 kts | 287° |
| 2026-05-04 11:35 | 43.14901 | 33.55321 | 0 ft | 486 kts | 287° |
| 2026-05-04 11:36 | 43.15921 | 33.50892 | 0 ft | 486 kts | 287° |
| 2026-05-04 11:36 | 43.16935 | 33.46477 | 0 ft | 486 kts | 287° |
| 2026-05-04 11:36 | 43.17947 | 33.42066 | 0 ft | 486 kts | 287° |
| 2026-05-04 11:36 | 43.18959 | 33.37641 | 0 ft | 486 kts | 287° |
| 2026-05-04 11:37 | 43.19966 | 33.33230 | 0 ft | 486 kts | 287° |
| 2026-05-04 11:37 | 43.20974 | 33.28808 | 0 ft | 486 kts | 287° |
| 2026-05-04 11:37 | 43.21980 | 33.24384 | 0 ft | 486 kts | 287° |
| 2026-05-04 11:37 | 43.22986 | 33.19953 | 0 ft | 486 kts | 287° |
| 2026-05-04 11:38 | 43.23988 | 33.15530 | 0 ft | 486 kts | 287° |
| 2026-05-04 11:38 | 43.24976 | 33.11163 | 0 ft | 486 kts | 287° |
| 2026-05-04 11:38 | 43.25973 | 33.06742 | 0 ft | 486 kts | 287° |
| 2026-05-04 11:38 | 43.26973 | 33.02302 | 0 ft | 486 kts | 287° |
| 2026-05-04 11:39 | 43.27967 | 32.97878 | 0 ft | 486 kts | 287° |
| 2026-05-04 11:39 | 43.28963 | 32.93435 | 0 ft | 486 kts | 287° |
| 2026-05-04 11:40 | 43.34892 | 32.66804 | 0 ft | 486 kts | 287° |
| 2026-05-04 11:41 | 43.35861 | 32.62417 | 0 ft | 486 kts | 287° |
| 2026-05-04 11:41 | 43.36841 | 32.57975 | 0 ft | 486 kts | 287° |
| 2026-05-04 11:41 | 43.37820 | 32.53528 | 0 ft | 486 kts | 287° |
| 2026-05-04 11:41 | 43.38796 | 32.49083 | 0 ft | 486 kts | 287° |
| 2026-05-04 11:42 | 43.39769 | 32.44645 | 0 ft | 486 kts | 287° |
| 2026-05-04 11:42 | 43.40743 | 32.40190 | 0 ft | 486 kts | 287° |
| 2026-05-04 11:42 | 43.41714 | 32.35744 | 0 ft | 486 kts | 287° |
| 2026-05-04 11:42 | 43.42685 | 32.31284 | 0 ft | 486 kts | 287° |
| 2026-05-04 11:43 | 43.43653 | 32.26833 | 0 ft | 486 kts | 287° |
| 2026-05-04 11:43 | 43.44618 | 32.22382 | 0 ft | 486 kts | 286° |
| 2026-05-04 11:43 | 43.45585 | 32.17915 | 0 ft | 486 kts | 287° |
| 2026-05-04 11:43 | 43.46549 | 32.13450 | 0 ft | 486 kts | 286° |
| 2026-05-04 11:44 | 43.47508 | 32.09003 | 0 ft | 486 kts | 286° |
| 2026-05-04 11:44 | 43.48468 | 32.04536 | 0 ft | 486 kts | 286° |
| 2026-05-04 11:44 | 43.49426 | 32.00074 | 0 ft | 486 kts | 286° |
| 2026-05-04 11:44 | 43.50382 | 31.95609 | 0 ft | 486 kts | 286° |
| 2026-05-04 11:45 | 43.51335 | 31.91150 | 0 ft | 486 kts | 286° |
| 2026-05-04 11:45 | 43.52277 | 31.86734 | 0 ft | 486 kts | 286° |
| 2026-05-04 11:45 | 43.53228 | 31.82266 | 0 ft | 486 kts | 286° |
| 2026-05-04 11:45 | 43.54178 | 31.77792 | 0 ft | 486 kts | 286° |
| 2026-05-04 11:46 | 43.55125 | 31.73320 | 0 ft | 486 kts | 286° |
| 2026-05-04 11:46 | 43.56067 | 31.68862 | 0 ft | 486 kts | 286° |
| 2026-05-04 11:46 | 43.57013 | 31.64379 | 0 ft | 486 kts | 286° |
| 2026-05-04 11:46 | 43.57955 | 31.59901 | 0 ft | 486 kts | 286° |
| 2026-05-04 11:47 | 43.58896 | 31.55423 | 0 ft | 486 kts | 286° |
| 2026-05-04 11:47 | 43.59835 | 31.50944 | 0 ft | 486 kts | 286° |
| 2026-05-04 11:47 | 43.60774 | 31.46453 | 0 ft | 486 kts | 286° |
| 2026-05-04 11:47 | 43.61709 | 31.41972 | 0 ft | 486 kts | 286° |
| 2026-05-04 11:48 | 43.62642 | 31.37492 | 0 ft | 486 kts | 286° |
| 2026-05-04 11:48 | 43.63573 | 31.33009 | 0 ft | 486 kts | 286° |
| 2026-05-04 11:48 | 43.64502 | 31.28528 | 0 ft | 486 kts | 286° |
| 2026-05-04 11:48 | 43.65431 | 31.24038 | 0 ft | 486 kts | 285° |
| 2026-05-04 11:49 | 43.66347 | 31.19599 | 0 ft | 486 kts | 286° |
| 2026-05-04 11:49 | 43.67271 | 31.15109 | 0 ft | 486 kts | 285° |
| 2026-05-04 11:49 | 43.68195 | 31.10614 | 0 ft | 486 kts | 286° |
| 2026-05-04 11:49 | 43.69113 | 31.06135 | 0 ft | 486 kts | 285° |
| 2026-05-04 11:50 | 43.70034 | 31.01630 | 0 ft | 486 kts | 285° |
| 2026-05-04 11:50 | 43.70949 | 30.97145 | 0 ft | 486 kts | 285° |
| 2026-05-04 11:50 | 43.71868 | 30.92634 | 0 ft | 486 kts | 285° |
| 2026-05-04 11:50 | 43.72779 | 30.88146 | 0 ft | 486 kts | 285° |
| 2026-05-04 11:51 | 43.73693 | 30.83638 | 0 ft | 486 kts | 285° |
| 2026-05-04 11:51 | 43.74603 | 30.79138 | 0 ft | 486 kts | 285° |
| 2026-05-04 11:51 | 43.75511 | 30.74637 | 0 ft | 486 kts | 285° |
| 2026-05-04 11:51 | 43.76416 | 30.70136 | 0 ft | 486 kts | 285° |
| 2026-05-04 11:52 | 43.77308 | 30.65689 | 0 ft | 486 kts | 285° |
| 2026-05-04 11:52 | 43.78211 | 30.61178 | 0 ft | 486 kts | 285° |
| 2026-05-04 11:52 | 43.79110 | 30.56678 | 0 ft | 486 kts | 285° |
| 2026-05-04 11:52 | 43.80224 | 30.52270 | 0 ft | 485 kts | 294° |
| 2026-05-04 11:53 | 43.81662 | 30.48043 | 0 ft | 486 kts | 296° |
| 2026-05-04 11:53 | 43.82695 | 30.45210 | 0 ft | 486 kts | 297° |
| 2026-05-04 11:53 | 43.84762 | 30.39720 | 0 ft | 486 kts | 297° |
| 2026-05-04 11:53 | 43.85811 | 30.36980 | 0 ft | 486 kts | 298° |
| 2026-05-04 11:55 | 43.97036 | 30.08059 | 0 ft | 486 kts | 298° |
| 2026-05-04 11:55 | 43.98637 | 30.03930 | 0 ft | 486 kts | 298° |
| 2026-05-04 11:56 | 44.00224 | 29.99831 | 0 ft | 486 kts | 298° |
| 2026-05-04 11:56 | 44.01820 | 29.95707 | 0 ft | 486 kts | 298° |
| 2026-05-04 11:56 | 44.03420 | 29.91565 | 0 ft | 486 kts | 298° |
| 2026-05-04 11:56 | 44.05020 | 29.87415 | 0 ft | 486 kts | 298° |
| 2026-05-04 11:57 | 44.06613 | 29.83280 | 0 ft | 486 kts | 298° |
| 2026-05-04 11:57 | 44.08209 | 29.79132 | 0 ft | 486 kts | 298° |
| 2026-05-04 11:57 | 44.09803 | 29.74981 | 0 ft | 486 kts | 298° |
| 2026-05-04 11:57 | 44.11398 | 29.70825 | 0 ft | 486 kts | 298° |
| 2026-05-04 11:58 | 44.12985 | 29.66681 | 0 ft | 486 kts | 298° |
| 2026-05-04 11:58 | 44.14576 | 29.62521 | 0 ft | 486 kts | 298° |
| 2026-05-04 11:58 | 44.16164 | 29.58364 | 0 ft | 486 kts | 298° |
| 2026-05-04 11:58 | 44.17730 | 29.54258 | 0 ft | 486 kts | 298° |
| 2026-05-04 11:59 | 44.19316 | 29.50093 | 0 ft | 486 kts | 298° |
| 2026-05-04 11:59 | 44.20898 | 29.45933 | 0 ft | 486 kts | 298° |
| 2026-05-04 11:59 | 44.22480 | 29.41767 | 0 ft | 486 kts | 297° |
| 2026-05-04 11:59 | 44.24057 | 29.37607 | 0 ft | 486 kts | 298° |
| 2026-05-04 12:00 | 44.25634 | 29.33441 | 0 ft | 486 kts | 297° |
| 2026-05-04 12:00 | 44.27211 | 29.29269 | 0 ft | 486 kts | 297° |
| 2026-05-04 12:00 | 44.28792 | 29.25080 | 0 ft | 486 kts | 297° |
| 2026-05-04 12:00 | 44.30363 | 29.20913 | 0 ft | 486 kts | 297° |
| 2026-05-04 12:01 | 44.31939 | 29.16723 | 0 ft | 486 kts | 297° |
| 2026-05-04 12:01 | 44.33493 | 29.12588 | 0 ft | 486 kts | 297° |
| 2026-05-04 12:02 | 44.42879 | 28.87469 | 0 ft | 486 kts | 297° |
| 2026-05-04 12:03 | 44.44438 | 28.83275 | 0 ft | 486 kts | 297° |
| 2026-05-04 12:03 | 44.45997 | 28.79073 | 0 ft | 486 kts | 297° |
| 2026-05-04 12:03 | 44.47555 | 28.74867 | 0 ft | 486 kts | 297° |
| 2026-05-04 12:03 | 44.49106 | 28.70672 | 0 ft | 486 kts | 297° |
| 2026-05-04 12:04 | 44.50658 | 28.66465 | 0 ft | 486 kts | 297° |
| 2026-05-04 12:04 | 44.52206 | 28.62260 | 0 ft | 486 kts | 297° |
| 2026-05-04 12:04 | 44.53750 | 28.58037 | 0 ft | 486 kts | 297° |
| 2026-05-04 12:04 | 44.55283 | 28.53817 | 0 ft | 486 kts | 297° |
| 2026-05-04 12:05 | 44.56809 | 28.49593 | 0 ft | 486 kts | 296° |
| 2026-05-04 12:05 | 44.58335 | 28.45359 | 0 ft | 486 kts | 296° |
| 2026-05-04 12:05 | 44.59860 | 28.41116 | 0 ft | 486 kts | 296° |
| 2026-05-04 12:05 | 44.61359 | 28.36936 | 0 ft | 486 kts | 296° |
| 2026-05-04 12:06 | 44.62878 | 28.32693 | 0 ft | 486 kts | 296° |
| 2026-05-04 12:06 | 44.64396 | 28.28443 | 0 ft | 486 kts | 296° |
| 2026-05-04 12:06 | 44.65911 | 28.24194 | 0 ft | 486 kts | 296° |
| 2026-05-04 12:06 | 44.67422 | 28.19947 | 0 ft | 486 kts | 296° |
| 2026-05-04 12:07 | 44.68932 | 28.15699 | 0 ft | 486 kts | 296° |
| 2026-05-04 12:07 | 44.70441 | 28.11445 | 0 ft | 486 kts | 296° |
| 2026-05-04 12:07 | 44.71944 | 28.07199 | 0 ft | 486 kts | 296° |
| 2026-05-04 12:07 | 44.73451 | 28.02935 | 0 ft | 486 kts | 296° |
| 2026-05-04 12:08 | 44.74952 | 27.98683 | 0 ft | 486 kts | 296° |
| 2026-05-04 12:08 | 44.76454 | 27.94420 | 0 ft | 486 kts | 296° |
| 2026-05-04 12:08 | 44.77953 | 27.90157 | 0 ft | 486 kts | 296° |
| 2026-05-04 12:08 | 44.79448 | 27.85901 | 0 ft | 486 kts | 296° |
| 2026-05-04 12:09 | 44.80945 | 27.81630 | 0 ft | 486 kts | 296° |
| 2026-05-04 12:09 | 44.82424 | 27.77407 | 0 ft | 486 kts | 296° |
| 2026-05-04 12:09 | 44.83922 | 27.73121 | 0 ft | 486 kts | 296° |
| 2026-05-04 12:09 | 44.85409 | 27.68860 | 0 ft | 486 kts | 296° |
| 2026-05-04 12:10 | 44.86901 | 27.64576 | 0 ft | 486 kts | 296° |
| 2026-05-04 12:10 | 44.88387 | 27.60303 | 0 ft | 486 kts | 296° |
| 2026-05-04 12:10 | 44.89876 | 27.56016 | 0 ft | 486 kts | 296° |
| 2026-05-04 12:10 | 44.91363 | 27.51727 | 0 ft | 486 kts | 296° |
| 2026-05-04 12:11 | 44.92846 | 27.47442 | 0 ft | 486 kts | 296° |
| 2026-05-04 12:11 | 44.94326 | 27.43159 | 0 ft | 486 kts | 296° |
| 2026-05-04 12:11 | 44.95808 | 27.38862 | 0 ft | 486 kts | 296° |
| 2026-05-04 12:11 | 44.97289 | 27.34564 | 0 ft | 486 kts | 296° |
| 2026-05-04 12:12 | 44.98767 | 27.30267 | 0 ft | 486 kts | 296° |
| 2026-05-04 12:12 | 45.00244 | 27.25964 | 0 ft | 486 kts | 296° |
| 2026-05-04 12:12 | 45.01699 | 27.21719 | 0 ft | 486 kts | 295° |
| 2026-05-04 12:12 | 45.03172 | 27.17416 | 0 ft | 486 kts | 296° |
| 2026-05-04 12:13 | 45.04643 | 27.13111 | 0 ft | 486 kts | 295° |
| 2026-05-04 12:14 | 45.14889 | 26.82934 | 0 ft | 486 kts | 295° |
| 2026-05-04 12:15 | 45.16345 | 26.78615 | 0 ft | 486 kts | 295° |
| 2026-05-04 12:15 | 45.17803 | 26.74287 | 0 ft | 486 kts | 295° |
| 2026-05-04 12:15 | 45.19261 | 26.69951 | 0 ft | 486 kts | 295° |
| 2026-05-04 12:15 | 45.20714 | 26.65621 | 0 ft | 486 kts | 295° |
| 2026-05-04 12:16 | 45.22148 | 26.61340 | 0 ft | 486 kts | 295° |
| 2026-05-04 12:16 | 45.23599 | 26.57005 | 0 ft | 486 kts | 295° |
| 2026-05-04 12:16 | 45.25045 | 26.52675 | 0 ft | 486 kts | 295° |
| 2026-05-04 12:16 | 45.26491 | 26.48339 | 0 ft | 486 kts | 295° |
| 2026-05-04 12:17 | 45.27937 | 26.43996 | 0 ft | 486 kts | 295° |
| 2026-05-04 12:17 | 45.29380 | 26.39654 | 0 ft | 486 kts | 295° |
| 2026-05-04 12:17 | 45.30820 | 26.35315 | 0 ft | 486 kts | 295° |
| 2026-05-04 12:17 | 45.32261 | 26.30967 | 0 ft | 486 kts | 295° |
| 2026-05-04 12:18 | 45.33702 | 26.26608 | 0 ft | 486 kts | 295° |
| 2026-05-04 12:18 | 45.35122 | 26.22309 | 0 ft | 486 kts | 295° |
| 2026-05-04 12:18 | 45.36559 | 26.17949 | 0 ft | 486 kts | 295° |
| 2026-05-04 12:18 | 45.37987 | 26.13608 | 0 ft | 486 kts | 295° |
| 2026-05-04 12:19 | 45.39418 | 26.09255 | 0 ft | 486 kts | 295° |
| 2026-05-04 12:19 | 45.40850 | 26.04888 | 0 ft | 486 kts | 295° |
| 2026-05-04 12:19 | 45.42276 | 26.00532 | 0 ft | 486 kts | 295° |
| 2026-05-04 12:19 | 45.43703 | 25.96169 | 0 ft | 486 kts | 295° |
| 2026-05-04 12:20 | 45.45128 | 25.91803 | 0 ft | 486 kts | 295° |
| 2026-05-04 12:20 | 45.46550 | 25.87439 | 0 ft | 486 kts | 295° |
| 2026-05-04 12:20 | 45.47972 | 25.83067 | 0 ft | 486 kts | 295° |
| 2026-05-04 12:20 | 45.49396 | 25.78682 | 0 ft | 486 kts | 295° |
| 2026-05-04 12:21 | 45.50819 | 25.74291 | 0 ft | 486 kts | 294° |
| 2026-05-04 12:21 | 45.52235 | 25.69916 | 0 ft | 486 kts | 295° |
| 2026-05-04 12:21 | 45.53648 | 25.65542 | 0 ft | 486 kts | 295° |
| 2026-05-04 12:21 | 45.55043 | 25.61216 | 0 ft | 486 kts | 294° |
| 2026-05-04 12:22 | 45.56457 | 25.56826 | 0 ft | 486 kts | 295° |
| 2026-05-04 12:22 | 45.57866 | 25.52444 | 0 ft | 486 kts | 294° |
| 2026-05-04 12:22 | 45.59275 | 25.48053 | 0 ft | 486 kts | 294° |
| 2026-05-04 12:22 | 45.60682 | 25.43661 | 0 ft | 486 kts | 294° |
| 2026-05-04 12:23 | 45.62087 | 25.39267 | 0 ft | 486 kts | 294° |
| 2026-05-04 12:23 | 45.63489 | 25.34874 | 0 ft | 486 kts | 294° |
| 2026-05-04 12:23 | 45.64889 | 25.30482 | 0 ft | 486 kts | 294° |
| 2026-05-04 12:23 | 45.66289 | 25.26083 | 0 ft | 486 kts | 294° |
| 2026-05-04 12:24 | 45.67688 | 25.21679 | 0 ft | 486 kts | 294° |
| 2026-05-04 12:24 | 45.69085 | 25.17271 | 0 ft | 486 kts | 294° |
| 2026-05-04 12:24 | 45.70481 | 25.12861 | 0 ft | 486 kts | 294° |
| 2026-05-04 12:24 | 45.71854 | 25.08519 | 0 ft | 486 kts | 294° |
| 2026-05-04 12:25 | 45.73244 | 25.04110 | 0 ft | 486 kts | 294° |
| 2026-05-04 12:25 | 45.74638 | 24.99684 | 0 ft | 486 kts | 294° |
| 2026-05-04 12:25 | 45.76025 | 24.95275 | 0 ft | 486 kts | 294° |
| 2026-05-04 12:25 | 45.77408 | 24.90866 | 0 ft | 486 kts | 294° |
| 2026-05-04 12:26 | 45.78794 | 24.86443 | 0 ft | 486 kts | 294° |
| 2026-05-04 12:26 | 45.80177 | 24.82021 | 0 ft | 486 kts | 294° |
| 2026-05-04 12:26 | 45.81558 | 24.77595 | 0 ft | 486 kts | 294° |
| 2026-05-04 12:26 | 45.82938 | 24.73166 | 0 ft | 486 kts | 294° |
| 2026-05-04 12:27 | 45.84318 | 24.68730 | 0 ft | 486 kts | 294° |
| 2026-05-04 12:27 | 45.85677 | 24.64353 | 0 ft | 486 kts | 294° |
| 2026-05-04 12:27 | 45.87049 | 24.59926 | 0 ft | 486 kts | 294° |
| 2026-05-04 12:27 | 45.88420 | 24.55494 | 0 ft | 486 kts | 294° |
| 2026-05-04 12:28 | 45.89791 | 24.51056 | 0 ft | 486 kts | 294° |
| 2026-05-04 12:28 | 45.91162 | 24.46607 | 0 ft | 486 kts | 294° |
| 2026-05-04 12:28 | 45.92526 | 24.42173 | 0 ft | 486 kts | 294° |
| 2026-05-04 12:28 | 45.93892 | 24.37723 | 0 ft | 486 kts | 294° |
| 2026-05-04 12:29 | 45.95248 | 24.33295 | 0 ft | 486 kts | 294° |
| 2026-05-04 12:29 | 45.96599 | 24.28830 | 0 ft | 486 kts | 293° |
| 2026-05-04 12:29 | 45.97918 | 24.24358 | 0 ft | 486 kts | 292° |
| 2026-05-04 12:29 | 45.99221 | 24.19884 | 0 ft | 486 kts | 292° |
| 2026-05-04 12:30 | 46.00522 | 24.15384 | 0 ft | 486 kts | 292° |
| 2026-05-04 12:30 | 46.01815 | 24.10887 | 0 ft | 486 kts | 292° |
| 2026-05-04 12:30 | 46.03103 | 24.06391 | 0 ft | 486 kts | 292° |
| 2026-05-04 12:30 | 46.04386 | 24.01897 | 0 ft | 486 kts | 292° |
| 2026-05-04 12:31 | 46.05668 | 23.97402 | 0 ft | 486 kts | 292° |
| 2026-05-04 12:31 | 46.06936 | 23.92942 | 0 ft | 486 kts | 292° |
| 2026-05-04 12:31 | 46.08216 | 23.88430 | 0 ft | 486 kts | 292° |
| 2026-05-04 12:31 | 46.09492 | 23.83926 | 0 ft | 486 kts | 292° |
| 2026-05-04 12:32 | 46.10769 | 23.79409 | 0 ft | 486 kts | 292° |
| 2026-05-04 12:32 | 46.13315 | 23.70374 | 0 ft | 486 kts | 292° |
| 2026-05-04 12:32 | 46.14583 | 23.65863 | 0 ft | 486 kts | 292° |
| 2026-05-04 12:33 | 46.15849 | 23.61349 | 0 ft | 486 kts | 292° |
| 2026-05-04 12:33 | 46.17116 | 23.56821 | 0 ft | 486 kts | 292° |
| 2026-05-04 12:33 | 46.18380 | 23.52298 | 0 ft | 486 kts | 291° |
| 2026-05-04 12:33 | 46.19642 | 23.47772 | 0 ft | 486 kts | 292° |
| 2026-05-04 12:34 | 46.20890 | 23.43291 | 0 ft | 486 kts | 292° |
| 2026-05-04 12:34 | 46.22148 | 23.38764 | 0 ft | 486 kts | 291° |
| 2026-05-04 12:34 | 46.23405 | 23.34231 | 0 ft | 486 kts | 291° |
| 2026-05-04 12:34 | 46.24659 | 23.29699 | 0 ft | 486 kts | 291° |
| 2026-05-04 12:35 | 46.25912 | 23.25164 | 0 ft | 486 kts | 291° |
| 2026-05-04 12:35 | 46.27164 | 23.20621 | 0 ft | 486 kts | 291° |
| 2026-05-04 12:35 | 46.28417 | 23.16071 | 0 ft | 486 kts | 291° |
| 2026-05-04 12:35 | 46.29665 | 23.11526 | 0 ft | 486 kts | 291° |
| 2026-05-04 12:36 | 46.30909 | 23.06987 | 0 ft | 486 kts | 291° |
| 2026-05-04 12:36 | 46.32152 | 23.02444 | 0 ft | 486 kts | 291° |
| 2026-05-04 12:36 | 46.33398 | 22.97879 | 0 ft | 486 kts | 291° |
| 2026-05-04 12:36 | 46.34622 | 22.93390 | 0 ft | 486 kts | 291° |
| 2026-05-04 12:37 | 46.35860 | 22.88841 | 0 ft | 486 kts | 291° |
| 2026-05-04 12:37 | 46.37099 | 22.84281 | 0 ft | 486 kts | 291° |
| 2026-05-04 12:37 | 46.38335 | 22.79723 | 0 ft | 486 kts | 291° |
| 2026-05-04 12:37 | 46.39567 | 22.75167 | 0 ft | 486 kts | 291° |
| 2026-05-04 12:38 | 46.40801 | 22.70599 | 0 ft | 486 kts | 291° |
| 2026-05-04 12:38 | 46.42028 | 22.66043 | 0 ft | 486 kts | 291° |
| 2026-05-04 12:38 | 46.43257 | 22.61473 | 0 ft | 486 kts | 291° |
| 2026-05-04 12:38 | 46.44485 | 22.56900 | 0 ft | 486 kts | 291° |
| 2026-05-04 12:39 | 46.45708 | 22.52335 | 0 ft | 486 kts | 291° |
| 2026-05-04 12:39 | 46.46931 | 22.47760 | 0 ft | 486 kts | 291° |
| 2026-05-04 12:39 | 46.48151 | 22.43189 | 0 ft | 486 kts | 291° |
| 2026-05-04 12:39 | 46.49371 | 22.38609 | 0 ft | 486 kts | 291° |
| 2026-05-04 12:40 | 46.50584 | 22.34043 | 0 ft | 486 kts | 291° |
| 2026-05-04 12:40 | 46.51391 | 22.31003 | 0 ft | 486 kts | 291° |
| 2026-05-04 12:40 | 46.53013 | 22.24881 | 0 ft | 486 kts | 291° |
| 2026-05-04 12:40 | 46.54210 | 22.20351 | 0 ft | 486 kts | 291° |
| 2026-05-04 12:41 | 46.55421 | 22.15759 | 0 ft | 486 kts | 291° |
| 2026-05-04 12:41 | 46.56629 | 22.11169 | 0 ft | 486 kts | 291° |
| 2026-05-04 12:41 | 46.57834 | 22.06583 | 0 ft | 486 kts | 291° |
| 2026-05-04 12:41 | 46.58649 | 22.03473 | 0 ft | 486 kts | 290° |
| 2026-05-04 12:42 | 46.59838 | 21.98935 | 0 ft | 486 kts | 291° |
| 2026-05-04 12:42 | 46.61038 | 21.94341 | 0 ft | 486 kts | 290° |
| 2026-05-04 12:42 | 46.62241 | 21.89731 | 0 ft | 486 kts | 290° |
| 2026-05-04 12:42 | 46.63438 | 21.85129 | 0 ft | 486 kts | 290° |
| 2026-05-04 12:43 | 46.64632 | 21.80531 | 0 ft | 486 kts | 290° |
| 2026-05-04 12:43 | 46.65816 | 21.75963 | 0 ft | 486 kts | 290° |
| 2026-05-04 12:43 | 46.67009 | 21.71353 | 0 ft | 486 kts | 290° |
| 2026-05-04 12:43 | 46.68196 | 21.66751 | 0 ft | 486 kts | 290° |
| 2026-05-04 12:44 | 46.69385 | 21.62137 | 0 ft | 486 kts | 290° |
| 2026-05-04 12:44 | 46.70571 | 21.57523 | 0 ft | 486 kts | 290° |
| 2026-05-04 12:44 | 46.71753 | 21.52915 | 0 ft | 486 kts | 290° |
| 2026-05-04 12:44 | 46.72937 | 21.48286 | 0 ft | 486 kts | 290° |
| 2026-05-04 12:45 | 46.74113 | 21.43679 | 0 ft | 486 kts | 290° |
| 2026-05-04 12:45 | 46.75293 | 21.39049 | 0 ft | 486 kts | 290° |
| 2026-05-04 12:45 | 46.76506 | 21.34444 | 0 ft | 486 kts | 291° |
| 2026-05-04 12:45 | 46.77733 | 21.29918 | 0 ft | 486 kts | 291° |
| 2026-05-04 12:46 | 46.78983 | 21.25363 | 0 ft | 486 kts | 291° |
| 2026-05-04 12:46 | 46.80250 | 21.20767 | 0 ft | 486 kts | 292° |
| 2026-05-04 12:46 | 46.81517 | 21.16177 | 0 ft | 486 kts | 292° |
| 2026-05-04 12:46 | 46.82779 | 21.11604 | 0 ft | 486 kts | 292° |
| 2026-05-04 12:47 | 46.84041 | 21.07027 | 0 ft | 486 kts | 291° |
| 2026-05-04 12:47 | 46.85306 | 21.02430 | 0 ft | 486 kts | 292° |
| 2026-05-04 12:47 | 46.86549 | 20.97909 | 0 ft | 486 kts | 291° |
| 2026-05-04 12:47 | 46.87807 | 20.93318 | 0 ft | 486 kts | 291° |
| 2026-05-04 12:48 | 46.89060 | 20.88738 | 0 ft | 486 kts | 291° |
| 2026-05-04 12:48 | 46.90314 | 20.84145 | 0 ft | 486 kts | 291° |
| 2026-05-04 12:48 | 46.91565 | 20.79556 | 0 ft | 486 kts | 291° |
| 2026-05-04 12:48 | 46.92813 | 20.74964 | 0 ft | 486 kts | 291° |
| 2026-05-04 12:49 | 46.94060 | 20.70369 | 0 ft | 486 kts | 291° |
| 2026-05-04 12:49 | 46.95309 | 20.65759 | 0 ft | 486 kts | 291° |
| 2026-05-04 12:49 | 46.96553 | 20.61156 | 0 ft | 486 kts | 291° |
| 2026-05-04 12:49 | 46.97793 | 20.56558 | 0 ft | 486 kts | 291° |
| 2026-05-04 12:50 | 46.99034 | 20.51947 | 0 ft | 486 kts | 291° |
| 2026-05-04 12:50 | 47.00273 | 20.47333 | 0 ft | 486 kts | 291° |
| 2026-05-04 12:50 | 47.01507 | 20.42730 | 0 ft | 486 kts | 291° |
| 2026-05-04 12:50 | 47.02741 | 20.38117 | 0 ft | 486 kts | 291° |
| 2026-05-04 12:51 | 47.03975 | 20.33497 | 0 ft | 486 kts | 291° |
| 2026-05-04 12:51 | 47.05192 | 20.28928 | 0 ft | 486 kts | 291° |
| 2026-05-04 12:51 | 47.06418 | 20.24317 | 0 ft | 486 kts | 291° |
| 2026-05-04 12:51 | 47.07647 | 20.19690 | 0 ft | 486 kts | 291° |
| 2026-05-04 12:52 | 47.08861 | 20.15105 | 0 ft | 486 kts | 291° |
| 2026-05-04 12:52 | 47.10087 | 20.10468 | 0 ft | 486 kts | 291° |
| 2026-05-04 12:52 | 47.11311 | 20.05828 | 0 ft | 488 kts | 291° |
| 2026-05-04 12:52 | 47.12536 | 20.01178 | 0 ft | 489 kts | 291° |
| 2026-05-04 12:53 | 47.13758 | 19.96527 | 0 ft | 487 kts | 291° |
| 2026-05-04 12:53 | 47.14969 | 19.91909 | 0 ft | 482 kts | 291° |
| 2026-05-04 12:53 | 47.16165 | 19.87340 | 0 ft | 476 kts | 291° |
| 2026-05-04 12:53 | 47.17346 | 19.82816 | 0 ft | 471 kts | 291° |
| 2026-05-04 12:54 | 47.18438 | 19.78629 | 0 ft | 468 kts | 291° |
| 2026-05-04 12:54 | 47.19598 | 19.74173 | 0 ft | 465 kts | 291° |
| 2026-05-04 12:54 | 47.20748 | 19.69740 | 0 ft | 462 kts | 291° |
| 2026-05-04 12:54 | 47.21877 | 19.65384 | 0 ft | 459 kts | 291° |
| 2026-05-04 12:55 | 47.23008 | 19.61013 | 0 ft | 455 kts | 290° |
| 2026-05-04 12:55 | 47.24125 | 19.56684 | 0 ft | 451 kts | 290° |
| 2026-05-04 12:55 | 47.25214 | 19.52460 | 0 ft | 448 kts | 290° |
| 2026-05-04 12:55 | 47.26299 | 19.48239 | 0 ft | 446 kts | 290° |
| 2026-05-04 12:56 | 47.27394 | 19.43975 | 0 ft | 443 kts | 290° |
| 2026-05-04 12:56 | 47.28481 | 19.39731 | 0 ft | 441 kts | 290° |
| 2026-05-04 12:56 | 47.29557 | 19.35524 | 0 ft | 439 kts | 290° |
| 2026-05-04 12:56 | 47.30632 | 19.31313 | 0 ft | 436 kts | 290° |
| 2026-05-04 12:57 | 47.31695 | 19.27141 | 0 ft | 434 kts | 290° |
| 2026-05-04 12:57 | 47.32751 | 19.22988 | 0 ft | 431 kts | 290° |
| 2026-05-04 12:57 | 47.33799 | 19.18861 | 0 ft | 429 kts | 290° |
| 2026-05-04 12:57 | 47.34838 | 19.14762 | 0 ft | 426 kts | 290° |
| 2026-05-04 12:58 | 47.35862 | 19.10710 | 0 ft | 416 kts | 290° |
| 2026-05-04 12:58 | 47.36862 | 19.06748 | 0 ft | 405 kts | 290° |
| 2026-05-04 12:58 | 47.37830 | 19.02909 | 0 ft | 394 kts | 290° |
| 2026-05-04 12:58 | 47.38761 | 18.99205 | 0 ft | 385 kts | 290° |
| 2026-05-04 12:59 | 47.39680 | 18.95543 | 0 ft | 377 kts | 290° |
| 2026-05-04 12:59 | 47.40579 | 18.91946 | 0 ft | 369 kts | 290° |
| 2026-05-04 12:59 | 47.41460 | 18.88410 | 0 ft | 364 kts | 290° |
| 2026-05-04 12:59 | 47.42329 | 18.84910 | 0 ft | 361 kts | 290° |
| 2026-05-04 13:00 | 47.43190 | 18.81436 | 0 ft | 361 kts | 290° |
| 2026-05-04 13:00 | 47.44052 | 18.77949 | 0 ft | 361 kts | 290° |
| 2026-05-04 13:00 | 47.44911 | 18.74465 | 0 ft | 361 kts | 290° |
| 2026-05-04 13:00 | 47.45763 | 18.71004 | 0 ft | 361 kts | 290° |
| 2026-05-04 13:01 | 47.46615 | 18.67535 | 0 ft | 360 kts | 290° |
| 2026-05-04 13:01 | 47.47467 | 18.64063 | 0 ft | 357 kts | 290° |
| 2026-05-04 13:01 | 47.48311 | 18.60621 | 0 ft | 354 kts | 290° |
| 2026-05-04 13:01 | 47.49146 | 18.57205 | 0 ft | 352 kts | 290° |
| 2026-05-04 13:02 | 47.49974 | 18.53811 | 0 ft | 350 kts | 290° |
| 2026-05-04 13:02 | 47.50797 | 18.50433 | 0 ft | 349 kts | 289° |
| 2026-05-04 13:02 | 47.51616 | 18.47066 | 0 ft | 348 kts | 289° |
| 2026-05-04 13:02 | 47.52435 | 18.43695 | 0 ft | 347 kts | 289° |
| 2026-05-04 13:03 | 47.53251 | 18.40332 | 0 ft | 345 kts | 289° |
| 2026-05-04 13:03 | 47.54059 | 18.36998 | 0 ft | 344 kts | 289° |
| 2026-05-04 13:03 | 47.54864 | 18.33667 | 0 ft | 342 kts | 289° |
| 2026-05-04 13:03 | 47.55663 | 18.30360 | 0 ft | 340 kts | 289° |
| 2026-05-04 13:04 | 47.56456 | 18.27071 | 0 ft | 339 kts | 289° |
| 2026-05-04 13:04 | 47.57246 | 18.23790 | 0 ft | 337 kts | 289° |
| 2026-05-04 13:04 | 47.58021 | 18.20564 | 0 ft | 336 kts | 289° |
| 2026-05-04 13:04 | 47.58803 | 18.17305 | 0 ft | 335 kts | 289° |
| 2026-05-04 13:05 | 47.59582 | 18.14056 | 0 ft | 334 kts | 289° |
| 2026-05-04 13:05 | 47.60358 | 18.10813 | 0 ft | 332 kts | 289° |
| 2026-05-04 13:05 | 47.61128 | 18.07593 | 0 ft | 331 kts | 289° |
| 2026-05-04 13:05 | 47.61892 | 18.04388 | 0 ft | 329 kts | 289° |
| 2026-05-04 13:06 | 47.62653 | 18.01195 | 0 ft | 328 kts | 289° |
| 2026-05-04 13:06 | 47.63409 | 17.98016 | 0 ft | 327 kts | 289° |
| 2026-05-04 13:06 | 47.64166 | 17.94830 | 0 ft | 326 kts | 289° |
| 2026-05-04 13:06 | 47.64919 | 17.91658 | 0 ft | 325 kts | 289° |
| 2026-05-04 13:07 | 47.65670 | 17.88488 | 0 ft | 324 kts | 289° |
| 2026-05-04 13:07 | 47.66414 | 17.85342 | 0 ft | 322 kts | 289° |
| 2026-05-04 13:07 | 47.67152 | 17.82219 | 0 ft | 321 kts | 289° |
| 2026-05-04 13:07 | 47.67879 | 17.79134 | 0 ft | 320 kts | 289° |
| 2026-05-04 13:08 | 47.68613 | 17.76018 | 0 ft | 319 kts | 289° |
| 2026-05-04 13:08 | 47.69344 | 17.72910 | 0 ft | 318 kts | 289° |
| 2026-05-04 13:08 | 47.70074 | 17.69801 | 0 ft | 317 kts | 289° |
| 2026-05-04 13:08 | 47.70798 | 17.66715 | 0 ft | 316 kts | 289° |
| 2026-05-04 13:09 | 47.71518 | 17.63637 | 0 ft | 315 kts | 289° |
| 2026-05-04 13:09 | 47.72236 | 17.60567 | 0 ft | 314 kts | 289° |
| 2026-05-04 13:09 | 47.72972 | 17.57525 | 0 ft | 313 kts | 291° |
| 2026-05-04 13:09 | 47.73792 | 17.54529 | 0 ft | 312 kts | 292° |
| 2026-05-04 13:10 | 47.74626 | 17.51603 | 0 ft | 311 kts | 293° |
| 2026-05-04 13:10 | 47.75478 | 17.48655 | 0 ft | 310 kts | 293° |
| 2026-05-04 13:10 | 47.76329 | 17.45725 | 0 ft | 309 kts | 293° |
| 2026-05-04 13:10 | 47.77183 | 17.42796 | 0 ft | 307 kts | 293° |
| 2026-05-04 13:11 | 47.78033 | 17.39884 | 0 ft | 306 kts | 293° |
| 2026-05-04 13:11 | 47.78880 | 17.36984 | 0 ft | 305 kts | 293° |
| 2026-05-04 13:11 | 47.79726 | 17.34088 | 0 ft | 304 kts | 293° |
| 2026-05-04 13:11 | 47.80565 | 17.31215 | 0 ft | 303 kts | 293° |
| 2026-05-04 13:12 | 47.81403 | 17.28345 | 0 ft | 301 kts | 293° |
| 2026-05-04 13:12 | 47.82236 | 17.25491 | 0 ft | 300 kts | 293° |
| 2026-05-04 13:12 | 47.83066 | 17.22643 | 0 ft | 299 kts | 293° |
| 2026-05-04 13:12 | 47.83886 | 17.19833 | 0 ft | 298 kts | 293° |
| 2026-05-04 13:13 | 47.84710 | 17.17005 | 0 ft | 297 kts | 293° |
| 2026-05-04 13:13 | 47.85530 | 17.14190 | 0 ft | 296 kts | 293° |
| 2026-05-04 13:13 | 47.86347 | 17.11385 | 0 ft | 295 kts | 293° |
| 2026-05-04 13:13 | 47.87160 | 17.08593 | 0 ft | 294 kts | 293° |
| 2026-05-04 13:14 | 47.87970 | 17.05808 | 0 ft | 293 kts | 293° |
| 2026-05-04 13:14 | 47.88777 | 17.03033 | 0 ft | 292 kts | 293° |
| 2026-05-04 13:14 | 47.89525 | 17.00462 | 0 ft | 291 kts | 293° |
| 2026-05-04 13:14 | 47.90326 | 16.97707 | 0 ft | 290 kts | 293° |
| 2026-05-04 13:15 | 47.91127 | 16.94951 | 0 ft | 289 kts | 293° |
| 2026-05-04 13:15 | 47.91913 | 16.92241 | 0 ft | 287 kts | 293° |
| 2026-05-04 13:15 | 47.92706 | 16.89512 | 0 ft | 279 kts | 293° |
| 2026-05-04 13:15 | 47.93460 | 16.86915 | 0 ft | 270 kts | 293° |
| 2026-05-04 13:16 | 47.94165 | 16.84485 | 0 ft | 269 kts | 293° |
| 2026-05-04 13:16 | 47.94712 | 16.82628 | 0 ft | 268 kts | 294° |
| 2026-05-04 13:16 | 47.95404 | 16.80317 | 0 ft | 261 kts | 294° |
| 2026-05-04 13:16 | 47.96140 | 16.77881 | 0 ft | 253 kts | 294° |
| 2026-05-04 13:17 | 47.96853 | 16.75527 | 0 ft | 247 kts | 294° |
| 2026-05-04 13:17 | 47.97553 | 16.73221 | 0 ft | 242 kts | 294° |
| 2026-05-04 13:17 | 47.98240 | 16.70955 | 0 ft | 238 kts | 294° |
| 2026-05-04 13:17 | 47.98914 | 16.68739 | 0 ft | 235 kts | 294° |
| 2026-05-04 13:18 | 47.99576 | 16.66555 | 0 ft | 233 kts | 294° |
| 2026-05-04 13:18 | 48.00247 | 16.64347 | 0 ft | 232 kts | 294° |
| 2026-05-04 13:18 | 48.00908 | 16.62167 | 0 ft | 231 kts | 294° |
| 2026-05-04 13:18 | 48.01571 | 16.59979 | 0 ft | 230 kts | 294° |
| 2026-05-04 13:19 | 48.02231 | 16.57804 | 0 ft | 230 kts | 294° |
| 2026-05-04 13:19 | 48.02668 | 16.56364 | 0 ft | 229 kts | 294° |
| 2026-05-04 13:19 | 48.03548 | 16.53461 | 0 ft | 229 kts | 294° |
| 2026-05-04 13:19 | 48.04201 | 16.51303 | 0 ft | 228 kts | 294° |
| 2026-05-04 13:20 | 48.04849 | 16.49165 | 0 ft | 228 kts | 294° |
| 2026-05-04 13:20 | 48.05494 | 16.47034 | 0 ft | 227 kts | 294° |
| 2026-05-04 13:20 | 48.06145 | 16.44883 | 0 ft | 227 kts | 294° |
| 2026-05-04 13:20 | 48.06794 | 16.42739 | 0 ft | 226 kts | 294° |
| 2026-05-04 13:21 | 48.07443 | 16.40593 | 0 ft | 226 kts | 294° |
| 2026-05-04 13:21 | 48.08089 | 16.38458 | 0 ft | 225 kts | 294° |
| 2026-05-04 13:21 | 48.08733 | 16.36325 | 0 ft | 225 kts | 294° |
| 2026-05-04 13:21 | 48.09378 | 16.34191 | 0 ft | 224 kts | 294° |
| 2026-05-04 13:22 | 48.10016 | 16.32081 | 0 ft | 221 kts | 294° |
| 2026-05-04 13:22 | 48.10635 | 16.30030 | 0 ft | 218 kts | 294° |
| 2026-05-04 13:22 | 48.11264 | 16.27950 | 0 ft | 215 kts | 294° |
| 2026-05-04 13:22 | 48.11841 | 16.26039 | 0 ft | 212 kts | 294° |
| 2026-05-04 13:23 | 48.12444 | 16.24040 | 0 ft | 209 kts | 294° |
| 2026-05-04 13:23 | 48.13026 | 16.22114 | 0 ft | 199 kts | 294° |
| 2026-05-04 13:23 | 48.13591 | 16.20246 | 0 ft | 195 kts | 294° |
| 2026-05-04 13:23 | 48.14146 | 16.18405 | 0 ft | 193 kts | 294° |
| 2026-05-04 13:24 | 48.14741 | 16.16616 | 0 ft | 191 kts | 306° |
| 2026-05-04 13:24 | 48.15808 | 16.15531 | 0 ft | 192 kts | 348° |
| 2026-05-04 13:24 | 48.17106 | 16.15779 | 0 ft | 192 kts | 29° |
| 2026-05-04 13:25 | 48.19013 | 16.18288 | 0 ft | 192 kts | 53° |
| 2026-05-04 13:25 | 48.19486 | 16.20126 | 0 ft | 189 kts | 80° |
| 2026-05-04 13:25 | 48.19703 | 16.22042 | 0 ft | 188 kts | 82° |
| 2026-05-04 13:25 | 48.19896 | 16.23969 | 0 ft | 185 kts | 82° |
| 2026-05-04 13:26 | 48.20049 | 16.25840 | 0 ft | 178 kts | 87° |
| 2026-05-04 13:26 | 48.19953 | 16.27608 | 0 ft | 173 kts | 100° |
| 2026-05-04 13:26 | 48.19729 | 16.29390 | 0 ft | 176 kts | 102° |
| 2026-05-04 13:26 | 48.19380 | 16.31132 | 0 ft | 178 kts | 112° |
| 2026-05-04 13:27 | 48.18877 | 16.32830 | 0 ft | 179 kts | 118° |
| 2026-05-04 13:27 | 48.18299 | 16.34406 | 0 ft | 166 kts | 120° |
| 2026-05-04 13:27 | 48.17772 | 16.35908 | 0 ft | 162 kts | 117° |
| 2026-05-04 13:27 | 48.17277 | 16.37402 | 0 ft | 157 kts | 116° |
| 2026-05-04 13:28 | 48.16820 | 16.38797 | 0 ft | 148 kts | 115° |
| 2026-05-04 13:28 | 48.16425 | 16.40260 | 0 ft | 152 kts | 110° |
| 2026-05-04 13:28 | 48.16079 | 16.41749 | 0 ft | 151 kts | 109° |
| 2026-05-04 13:28 | 48.15652 | 16.43205 | 0 ft | 153 kts | 117° |
| 2026-05-04 13:29 | 48.15343 | 16.44101 | 0 ft | 139 kts | 118° |
| 2026-05-04 13:29 | 48.14890 | 16.45371 | 0 ft | 140 kts | 118° |
| 2026-05-04 13:29 | 48.14452 | 16.46659 | 0 ft | 137 kts | 116° |
| 2026-05-04 13:29 | 48.13903 | 16.48392 | 0 ft | 141 kts | 115° |
| 2026-05-04 13:30 | 48.13482 | 16.49693 | 0 ft | 137 kts | 116° |
| 2026-05-04 13:30 | 48.13200 | 16.50552 | 0 ft | 139 kts | 116° |
| 2026-05-04 13:30 | 48.12772 | 16.51852 | 0 ft | 141 kts | 117° |
| 2026-05-04 13:30 | 48.12345 | 16.53139 | 0 ft | 139 kts | 116° |
| 2026-05-04 13:31 | 48.11942 | 16.54375 | 0 ft | 110 kts | 115° |
| 2026-05-04 13:31 | 48.11746 | 16.54973 | 0 ft | 44 kts | 116° |
| 2026-05-04 13:31 | 48.11615 | 16.55385 | 0 ft | 43 kts | 115° |
| 2026-05-04 13:31 | 48.11519 | 16.55703 | 0 ft | 19 kts | 107° |
| 2026-05-04 13:32 | 48.11492 | 16.55909 | 0 ft | 21 kts | 99° |
| 2026-05-04 13:32 | 48.11530 | 16.56110 | 0 ft | 20 kts | 49° |
| 2026-05-04 13:32 | 48.11638 | 16.56264 | 0 ft | 23 kts | 43° |
| 2026-05-04 13:32 | 48.11746 | 16.56432 | 0 ft | 17 kts | 49° |
| 2026-05-04 13:33 | 48.11800 | 16.56498 | 0 ft | 0 kts | 27° |